sensor_id;sensor_type;location;lat;lon;timestamp;P1;durP1;ratioP1;P2;durP2;ratioP2
50241;SDS011;36126;43.222;27.874;2022-09-23T00:00:26;22.75;;;10.82;;
50241;SDS011;36126;43.222;27.874;2022-09-23T00:02:51;24.52;;;10.55;;
50241;SDS011;36126;43.222;27.874;2022-09-23T00:05:17;19.77;;;9.77;;
50241;SDS011;36126;43.222;27.874;2022-09-23T00:07:42;21.45;;;10.18;;
50241;SDS011;36126;43.222;27.874;2022-09-23T00:10:08;19.63;;;9.90;;
50241;SDS011;36126;43.222;27.874;2022-09-23T00:12:34;14.32;;;7.97;;
50241;SDS011;36126;43.222;27.874;2022-09-23T00:15:00;18.27;;;8.30;;
50241;SDS011;36126;43.222;27.874;2022-09-23T00:17:26;16.15;;;8.82;;
50241;SDS011;36126;43.222;27.874;2022-09-23T00:19:52;14.90;;;8.48;;
50241;SDS011;36126;43.222;27.874;2022-09-23T00:22:19;16.80;;;8.88;;
50241;SDS011;36126;43.222;27.874;2022-09-23T00:24:45;14.48;;;7.68;;
50241;SDS011;36126;43.222;27.874;2022-09-23T00:27:10;21.80;;;7.68;;
50241;SDS011;36126;43.222;27.874;2022-09-23T00:29:36;16.52;;;7.28;;
50241;SDS011;36126;43.222;27.874;2022-09-23T00:32:02;11.77;;;7.00;;
50241;SDS011;36126;43.222;27.874;2022-09-23T00:34:28;11.63;;;7.13;;
50241;SDS011;36126;43.222;27.874;2022-09-23T00:36:53;20.52;;;8.68;;
50241;SDS011;36126;43.222;27.874;2022-09-23T00:39:21;17.42;;;9.18;;
50241;SDS011;36126;43.222;27.874;2022-09-23T00:41:50;17.58;;;9.15;;
50241;SDS011;36126;43.222;27.874;2022-09-23T00:52:59;21.50;;;9.27;;
50241;SDS011;36126;43.222;27.874;2022-09-23T00:55:32;22.77;;;10.13;;
50241;SDS011;36126;43.222;27.874;2022-09-23T00:58:02;20.98;;;9.63;;
50241;SDS011;36126;43.222;27.874;2022-09-23T01:00:30;19.35;;;9.82;;
50241;SDS011;36126;43.222;27.874;2022-09-23T01:02:59;25.30;;;10.07;;
50241;SDS011;36126;43.222;27.874;2022-09-23T01:05:25;26.00;;;9.70;;
50241;SDS011;36126;43.222;27.874;2022-09-23T01:07:51;17.67;;;9.23;;
50241;SDS011;36126;43.222;27.874;2022-09-23T01:10:19;19.92;;;8.95;;
50241;SDS011;36126;43.222;27.874;2022-09-23T01:18:08;18.50;;;8.32;;
50241;SDS011;36126;43.222;27.874;2022-09-23T01:21:02;21.95;;;7.75;;
50241;SDS011;36126;43.222;27.874;2022-09-23T01:32:15;18.60;;;7.85;;
50241;SDS011;36126;43.222;27.874;2022-09-23T01:43:30;17.63;;;7.53;;
50241;SDS011;36126;43.222;27.874;2022-09-23T01:45:59;15.23;;;8.18;;
50241;SDS011;36126;43.222;27.874;2022-09-23T01:48:34;19.58;;;8.27;;
50241;SDS011;36126;43.222;27.874;2022-09-23T01:51:13;24.55;;;8.55;;
50241;SDS011;36126;43.222;27.874;2022-09-23T01:53:46;20.65;;;9.40;;
50241;SDS011;36126;43.222;27.874;2022-09-23T01:56:36;24.13;;;10.07;;
50241;SDS011;36126;43.222;27.874;2022-09-23T02:04:27;15.88;;;8.02;;
50241;SDS011;36126;43.222;27.874;2022-09-23T02:06:58;17.30;;;8.07;;
50241;SDS011;36126;43.222;27.874;2022-09-23T02:09:29;12.98;;;7.18;;
50241;SDS011;36126;43.222;27.874;2022-09-23T02:12:00;18.67;;;8.57;;
50241;SDS011;36126;43.222;27.874;2022-09-23T02:14:37;18.70;;;8.43;;
50241;SDS011;36126;43.222;27.874;2022-09-23T02:17:21;17.13;;;8.05;;
50241;SDS011;36126;43.222;27.874;2022-09-23T02:19:53;26.55;;;8.55;;
50241;SDS011;36126;43.222;27.874;2022-09-23T02:22:29;15.73;;;8.02;;
50241;SDS011;36126;43.222;27.874;2022-09-23T02:25:03;17.42;;;8.10;;
50241;SDS011;36126;43.222;27.874;2022-09-23T02:30:20;13.07;;;6.90;;
50241;SDS011;36126;43.222;27.874;2022-09-23T02:41:09;16.25;;;7.78;;
50241;SDS011;36126;43.222;27.874;2022-09-23T02:46:26;21.40;;;8.43;;
50241;SDS011;36126;43.222;27.874;2022-09-23T02:49:04;22.77;;;10.05;;
50241;SDS011;36126;43.222;27.874;2022-09-23T02:51:36;23.60;;;9.98;;
50241;SDS011;36126;43.222;27.874;2022-09-23T02:54:03;21.83;;;10.02;;
50241;SDS011;36126;43.222;27.874;2022-09-23T02:56:31;20.08;;;9.13;;
50241;SDS011;36126;43.222;27.874;2022-09-23T02:58:59;16.60;;;8.85;;
50241;SDS011;36126;43.222;27.874;2022-09-23T03:09:33;20.60;;;9.15;;
50241;SDS011;36126;43.222;27.874;2022-09-23T03:12:12;20.85;;;9.00;;
50241;SDS011;36126;43.222;27.874;2022-09-23T03:20:11;17.60;;;7.95;;
50241;SDS011;36126;43.222;27.874;2022-09-23T03:22:48;28.85;;;8.60;;
50241;SDS011;36126;43.222;27.874;2022-09-23T03:25:20;19.77;;;9.23;;
50241;SDS011;36126;43.222;27.874;2022-09-23T03:27:48;21.17;;;10.63;;
50241;SDS011;36126;43.222;27.874;2022-09-23T03:30:14;28.23;;;14.93;;
50241;SDS011;36126;43.222;27.874;2022-09-23T03:32:42;35.53;;;14.35;;
50241;SDS011;36126;43.222;27.874;2022-09-23T03:35:09;30.65;;;16.15;;
50241;SDS011;36126;43.222;27.874;2022-09-23T03:37:38;37.05;;;17.17;;
50241;SDS011;36126;43.222;27.874;2022-09-23T03:40:09;47.90;;;21.00;;
50241;SDS011;36126;43.222;27.874;2022-09-23T03:42:39;45.20;;;23.58;;
50241;SDS011;36126;43.222;27.874;2022-09-23T03:45:07;51.88;;;26.08;;
50241;SDS011;36126;43.222;27.874;2022-09-23T03:47:37;53.70;;;27.48;;
50241;SDS011;36126;43.222;27.874;2022-09-23T03:50:03;64.57;;;29.80;;
50241;SDS011;36126;43.222;27.874;2022-09-23T03:52:29;59.20;;;29.05;;
50241;SDS011;36126;43.222;27.874;2022-09-23T03:54:55;62.55;;;29.67;;
50241;SDS011;36126;43.222;27.874;2022-09-23T03:57:21;59.78;;;29.23;;
50241;SDS011;36126;43.222;27.874;2022-09-23T03:59:47;60.40;;;29.80;;
50241;SDS011;36126;43.222;27.874;2022-09-23T04:02:14;62.10;;;27.80;;
50241;SDS011;36126;43.222;27.874;2022-09-23T04:04:41;47.75;;;22.67;;
50241;SDS011;36126;43.222;27.874;2022-09-23T04:07:07;46.92;;;24.17;;
50241;SDS011;36126;43.222;27.874;2022-09-23T04:09:34;55.80;;;26.38;;
50241;SDS011;36126;43.222;27.874;2022-09-23T04:11:59;46.50;;;24.67;;
50241;SDS011;36126;43.222;27.874;2022-09-23T04:14:25;44.35;;;23.88;;
50241;SDS011;36126;43.222;27.874;2022-09-23T04:16:51;56.17;;;24.83;;
50241;SDS011;36126;43.222;27.874;2022-09-23T04:19:16;59.80;;;27.20;;
50241;SDS011;36126;43.222;27.874;2022-09-23T04:21:42;50.35;;;24.25;;
50241;SDS011;36126;43.222;27.874;2022-09-23T04:24:08;61.58;;;24.95;;
50241;SDS011;36126;43.222;27.874;2022-09-23T04:26:35;49.22;;;21.02;;
50241;SDS011;36126;43.222;27.874;2022-09-23T04:29:02;55.22;;;19.33;;
50241;SDS011;36126;43.222;27.874;2022-09-23T04:31:29;42.35;;;19.58;;
50241;SDS011;36126;43.222;27.874;2022-09-23T04:33:56;38.72;;;17.17;;
50241;SDS011;36126;43.222;27.874;2022-09-23T04:36:22;43.38;;;16.85;;
50241;SDS011;36126;43.222;27.874;2022-09-23T04:38:48;33.78;;;13.82;;
50241;SDS011;36126;43.222;27.874;2022-09-23T04:41:14;37.35;;;13.82;;
50241;SDS011;36126;43.222;27.874;2022-09-23T04:43:40;32.17;;;14.40;;
50241;SDS011;36126;43.222;27.874;2022-09-23T04:46:07;46.90;;;14.63;;
50241;SDS011;36126;43.222;27.874;2022-09-23T04:48:35;33.10;;;13.07;;
50241;SDS011;36126;43.222;27.874;2022-09-23T04:51:02;30.20;;;10.05;;
50241;SDS011;36126;43.222;27.874;2022-09-23T04:53:40;30.58;;;10.63;;
50241;SDS011;36126;43.222;27.874;2022-09-23T04:56:08;18.80;;;8.63;;
50241;SDS011;36126;43.222;27.874;2022-09-23T04:58:35;17.23;;;8.90;;
50241;SDS011;36126;43.222;27.874;2022-09-23T05:03:51;16.05;;;7.35;;
50241;SDS011;36126;43.222;27.874;2022-09-23T05:06:18;13.70;;;5.97;;
50241;SDS011;36126;43.222;27.874;2022-09-23T05:08:46;15.85;;;6.47;;
50241;SDS011;36126;43.222;27.874;2022-09-23T05:11:13;11.38;;;5.97;;
50241;SDS011;36126;43.222;27.874;2022-09-23T05:13:39;14.23;;;5.88;;
50241;SDS011;36126;43.222;27.874;2022-09-23T05:16:05;19.25;;;7.47;;
50241;SDS011;36126;43.222;27.874;2022-09-23T05:18:33;22.55;;;7.68;;
50241;SDS011;36126;43.222;27.874;2022-09-23T05:21:00;15.40;;;6.80;;
50241;SDS011;36126;43.222;27.874;2022-09-23T05:23:27;24.90;;;8.82;;
50241;SDS011;36126;43.222;27.874;2022-09-23T05:26:11;23.35;;;11.35;;
50241;SDS011;36126;43.222;27.874;2022-09-23T05:28:37;24.23;;;11.20;;
50241;SDS011;36126;43.222;27.874;2022-09-23T05:31:08;20.95;;;11.70;;
50241;SDS011;36126;43.222;27.874;2022-09-23T05:33:42;26.60;;;11.77;;
50241;SDS011;36126;43.222;27.874;2022-09-23T05:36:13;24.83;;;11.55;;
50241;SDS011;36126;43.222;27.874;2022-09-23T05:38:39;23.20;;;10.18;;
50241;SDS011;36126;43.222;27.874;2022-09-23T05:41:09;19.13;;;7.88;;
50241;SDS011;36126;43.222;27.874;2022-09-23T05:43:36;18.50;;;9.65;;
50241;SDS011;36126;43.222;27.874;2022-09-23T05:48:30;19.98;;;10.23;;
50241;SDS011;36126;43.222;27.874;2022-09-23T05:50:57;19.83;;;9.40;;
50241;SDS011;36126;43.222;27.874;2022-09-23T05:53:24;23.70;;;9.73;;
50241;SDS011;36126;43.222;27.874;2022-09-23T05:55:50;20.58;;;9.35;;
50241;SDS011;36126;43.222;27.874;2022-09-23T05:58:15;30.52;;;10.13;;
50241;SDS011;36126;43.222;27.874;2022-09-23T06:00:41;18.58;;;9.32;;
50241;SDS011;36126;43.222;27.874;2022-09-23T06:03:11;36.97;;;9.82;;
50241;SDS011;36126;43.222;27.874;2022-09-23T06:05:38;19.95;;;8.38;;
50241;SDS011;36126;43.222;27.874;2022-09-23T06:08:04;14.43;;;7.68;;
50241;SDS011;36126;43.222;27.874;2022-09-23T06:10:32;13.32;;;7.28;;
50241;SDS011;36126;43.222;27.874;2022-09-23T06:13:01;18.42;;;6.90;;
50241;SDS011;36126;43.222;27.874;2022-09-23T06:15:26;16.60;;;7.35;;
50241;SDS011;36126;43.222;27.874;2022-09-23T06:17:52;14.32;;;6.63;;
50241;SDS011;36126;43.222;27.874;2022-09-23T06:20:17;12.75;;;6.43;;
50241;SDS011;36126;43.222;27.874;2022-09-23T06:22:43;18.75;;;8.90;;
50241;SDS011;36126;43.222;27.874;2022-09-23T06:25:08;20.35;;;7.70;;
50241;SDS011;36126;43.222;27.874;2022-09-23T06:27:36;14.93;;;7.45;;
50241;SDS011;36126;43.222;27.874;2022-09-23T06:30:02;17.95;;;7.90;;
50241;SDS011;36126;43.222;27.874;2022-09-23T06:32:28;18.55;;;7.30;;
50241;SDS011;36126;43.222;27.874;2022-09-23T06:34:54;16.38;;;5.95;;
50241;SDS011;36126;43.222;27.874;2022-09-23T06:37:20;14.05;;;6.32;;
50241;SDS011;36126;43.222;27.874;2022-09-23T06:39:46;11.23;;;5.80;;
50241;SDS011;36126;43.222;27.874;2022-09-23T06:42:11;16.52;;;6.53;;
50241;SDS011;36126;43.222;27.874;2022-09-23T06:44:37;9.75;;;5.45;;
50241;SDS011;36126;43.222;27.874;2022-09-23T06:47:03;11.35;;;4.63;;
50241;SDS011;36126;43.222;27.874;2022-09-23T06:49:28;9.43;;;4.65;;
50241;SDS011;36126;43.222;27.874;2022-09-23T06:51:55;17.10;;;4.30;;
50241;SDS011;36126;43.222;27.874;2022-09-23T06:54:20;7.68;;;3.90;;
50241;SDS011;36126;43.222;27.874;2022-09-23T06:56:46;7.72;;;3.58;;
50241;SDS011;36126;43.222;27.874;2022-09-23T06:59:12;8.57;;;3.72;;
50241;SDS011;36126;43.222;27.874;2022-09-23T07:01:41;9.55;;;4.50;;
50241;SDS011;36126;43.222;27.874;2022-09-23T07:04:07;13.63;;;5.00;;
50241;SDS011;36126;43.222;27.874;2022-09-23T07:06:34;10.55;;;4.20;;
50241;SDS011;36126;43.222;27.874;2022-09-23T07:09:01;11.27;;;3.17;;
50241;SDS011;36126;43.222;27.874;2022-09-23T07:11:27;10.70;;;3.35;;
50241;SDS011;36126;43.222;27.874;2022-09-23T07:13:53;4.85;;;2.50;;
50241;SDS011;36126;43.222;27.874;2022-09-23T07:16:19;4.00;;;2.50;;
50241;SDS011;36126;43.222;27.874;2022-09-23T07:18:45;4.78;;;2.75;;
50241;SDS011;36126;43.222;27.874;2022-09-23T07:21:15;5.28;;;2.53;;
50241;SDS011;36126;43.222;27.874;2022-09-23T07:23:42;5.57;;;2.55;;
50241;SDS011;36126;43.222;27.874;2022-09-23T07:26:11;6.30;;;2.45;;
50241;SDS011;36126;43.222;27.874;2022-09-23T07:28:37;4.50;;;2.15;;
50241;SDS011;36126;43.222;27.874;2022-09-23T07:31:08;2.85;;;1.45;;
50241;SDS011;36126;43.222;27.874;2022-09-23T07:36:03;3.63;;;1.77;;
50241;SDS011;36126;43.222;27.874;2022-09-23T07:38:34;1.95;;;1.70;;
50241;SDS011;36126;43.222;27.874;2022-09-23T07:41:04;3.67;;;1.50;;
50241;SDS011;36126;43.222;27.874;2022-09-23T07:43:33;2.35;;;1.88;;
50241;SDS011;36126;43.222;27.874;2022-09-23T07:45:59;2.63;;;1.67;;
50241;SDS011;36126;43.222;27.874;2022-09-23T07:48:27;2.17;;;1.50;;
50241;SDS011;36126;43.222;27.874;2022-09-23T07:50:54;3.55;;;1.63;;
50241;SDS011;36126;43.222;27.874;2022-09-23T07:53:20;2.40;;;1.75;;
50241;SDS011;36126;43.222;27.874;2022-09-23T07:55:53;12.85;;;5.20;;
50241;SDS011;36126;43.222;27.874;2022-09-23T07:58:19;1.88;;;1.40;;
50241;SDS011;36126;43.222;27.874;2022-09-23T08:00:46;1.88;;;1.48;;
50241;SDS011;36126;43.222;27.874;2022-09-23T08:03:11;2.42;;;2.05;;
50241;SDS011;36126;43.222;27.874;2022-09-23T08:05:37;7.15;;;2.10;;
50241;SDS011;36126;43.222;27.874;2022-09-23T08:08:03;4.32;;;1.63;;
50241;SDS011;36126;43.222;27.874;2022-09-23T08:10:31;4.60;;;2.60;;
50241;SDS011;36126;43.222;27.874;2022-09-23T08:12:57;4.68;;;2.20;;
50241;SDS011;36126;43.222;27.874;2022-09-23T08:15:27;3.05;;;1.98;;
50241;SDS011;36126;43.222;27.874;2022-09-23T08:17:54;34.88;;;16.15;;
50241;SDS011;36126;43.222;27.874;2022-09-23T08:20:22;2.83;;;1.67;;
50241;SDS011;36126;43.222;27.874;2022-09-23T08:23:05;7.72;;;3.08;;
50241;SDS011;36126;43.222;27.874;2022-09-23T08:25:31;3.80;;;1.80;;
50241;SDS011;36126;43.222;27.874;2022-09-23T08:27:57;5.70;;;2.95;;
50241;SDS011;36126;43.222;27.874;2022-09-23T08:30:23;2.63;;;2.00;;
50241;SDS011;36126;43.222;27.874;2022-09-23T08:32:49;10.48;;;6.15;;
50241;SDS011;36126;43.222;27.874;2022-09-23T08:35:15;2.10;;;1.58;;
50241;SDS011;36126;43.222;27.874;2022-09-23T08:37:41;2.22;;;1.40;;
50241;SDS011;36126;43.222;27.874;2022-09-23T08:40:08;3.25;;;2.35;;
50241;SDS011;36126;43.222;27.874;2022-09-23T08:42:35;17.83;;;9.18;;
50241;SDS011;36126;43.222;27.874;2022-09-23T08:45:05;7.97;;;2.25;;
50241;SDS011;36126;43.222;27.874;2022-09-23T08:47:52;3.95;;;1.80;;
50241;SDS011;36126;43.222;27.874;2022-09-23T08:50:31;2.58;;;1.58;;
50241;SDS011;36126;43.222;27.874;2022-09-23T08:53:23;10.07;;;5.35;;
50241;SDS011;36126;43.222;27.874;2022-09-23T08:55:57;1.95;;;1.70;;
50241;SDS011;36126;43.222;27.874;2022-09-23T09:01:05;4.95;;;2.22;;
50241;SDS011;36126;43.222;27.874;2022-09-23T09:03:35;7.88;;;5.15;;
50241;SDS011;36126;43.222;27.874;2022-09-23T09:06:33;2.15;;;1.40;;
50241;SDS011;36126;43.222;27.874;2022-09-23T09:09:04;4.25;;;1.50;;
50241;SDS011;36126;43.222;27.874;2022-09-23T09:11:42;4.25;;;2.13;;
50241;SDS011;36126;43.222;27.874;2022-09-23T09:19:21;8.02;;;4.07;;
50241;SDS011;36126;43.222;27.874;2022-09-23T09:21:58;13.40;;;7.82;;
50241;SDS011;36126;43.222;27.874;2022-09-23T09:24:29;6.82;;;3.35;;
50241;SDS011;36126;43.222;27.874;2022-09-23T09:27:12;9.77;;;4.13;;
50241;SDS011;36126;43.222;27.874;2022-09-23T09:29:40;7.28;;;2.42;;
50241;SDS011;36126;43.222;27.874;2022-09-23T09:34:58;17.33;;;10.30;;
50241;SDS011;36126;43.222;27.874;2022-09-23T09:37:38;6.30;;;4.38;;
50241;SDS011;36126;43.222;27.874;2022-09-23T09:40:10;30.20;;;22.35;;
50241;SDS011;36126;43.222;27.874;2022-09-23T09:42:40;4.18;;;2.47;;
50241;SDS011;36126;43.222;27.874;2022-09-23T09:47:44;3.22;;;2.33;;
50241;SDS011;36126;43.222;27.874;2022-09-23T09:50:44;6.65;;;4.38;;
50241;SDS011;36126;43.222;27.874;2022-09-23T09:53:20;3.72;;;2.60;;
50241;SDS011;36126;43.222;27.874;2022-09-23T09:58:32;4.85;;;2.20;;
50241;SDS011;36126;43.222;27.874;2022-09-23T10:01:05;6.20;;;2.83;;
50241;SDS011;36126;43.222;27.874;2022-09-23T10:03:38;22.05;;;12.23;;
50241;SDS011;36126;43.222;27.874;2022-09-23T10:06:18;8.38;;;2.85;;
50241;SDS011;36126;43.222;27.874;2022-09-23T10:09:01;5.15;;;2.10;;
50241;SDS011;36126;43.222;27.874;2022-09-23T10:11:28;6.43;;;2.35;;
50241;SDS011;36126;43.222;27.874;2022-09-23T10:16:42;5.38;;;2.40;;
50241;SDS011;36126;43.222;27.874;2022-09-23T10:19:13;2.67;;;1.83;;
50241;SDS011;36126;43.222;27.874;2022-09-23T10:21:49;6.00;;;2.28;;
50241;SDS011;36126;43.222;27.874;2022-09-23T10:24:23;3.60;;;2.05;;
50241;SDS011;36126;43.222;27.874;2022-09-23T10:26:54;2.85;;;1.58;;
50241;SDS011;36126;43.222;27.874;2022-09-23T10:32:17;3.22;;;1.88;;
50241;SDS011;36126;43.222;27.874;2022-09-23T10:34:56;2.13;;;1.67;;
50241;SDS011;36126;43.222;27.874;2022-09-23T10:37:29;3.45;;;2.17;;
50241;SDS011;36126;43.222;27.874;2022-09-23T10:39:57;6.85;;;2.20;;
50241;SDS011;36126;43.222;27.874;2022-09-23T10:45:37;2.70;;;1.83;;
50241;SDS011;36126;43.222;27.874;2022-09-23T10:50:54;4.80;;;1.92;;
50241;SDS011;36126;43.222;27.874;2022-09-23T10:53:29;1.63;;;1.52;;
50241;SDS011;36126;43.222;27.874;2022-09-23T10:56:28;7.75;;;1.98;;
50241;SDS011;36126;43.222;27.874;2022-09-23T10:59:03;6.38;;;2.08;;
50241;SDS011;36126;43.222;27.874;2022-09-23T11:01:47;7.15;;;3.83;;
50241;SDS011;36126;43.222;27.874;2022-09-23T11:04:48;4.70;;;2.92;;
50241;SDS011;36126;43.222;27.874;2022-09-23T11:07:49;4.90;;;4.47;;
50241;SDS011;36126;43.222;27.874;2022-09-23T11:10:47;2.42;;;1.95;;
50241;SDS011;36126;43.222;27.874;2022-09-23T11:22:05;3.38;;;2.67;;
50241;SDS011;36126;43.222;27.874;2022-09-23T11:35:21;9.88;;;2.60;;
50241;SDS011;36126;43.222;27.874;2022-09-23T11:37:57;3.95;;;2.35;;
50241;SDS011;36126;43.222;27.874;2022-09-23T11:40:31;3.35;;;2.50;;
50241;SDS011;36126;43.222;27.874;2022-09-23T11:43:02;8.73;;;2.17;;
50241;SDS011;36126;43.222;27.874;2022-09-23T11:45:52;13.43;;;6.72;;
50241;SDS011;36126;43.222;27.874;2022-09-23T11:48:25;15.95;;;5.10;;
50241;SDS011;36126;43.222;27.874;2022-09-23T11:50:57;11.90;;;5.45;;
50241;SDS011;36126;43.222;27.874;2022-09-23T11:56:20;9.27;;;3.33;;
50241;SDS011;36126;43.222;27.874;2022-09-23T11:59:03;17.02;;;5.13;;
50241;SDS011;36126;43.222;27.874;2022-09-23T12:01:31;9.65;;;3.28;;
50241;SDS011;36126;43.222;27.874;2022-09-23T12:06:49;10.05;;;3.67;;
50241;SDS011;36126;43.222;27.874;2022-09-23T12:09:23;7.00;;;2.33;;
50241;SDS011;36126;43.222;27.874;2022-09-23T12:11:53;16.13;;;6.53;;
50241;SDS011;36126;43.222;27.874;2022-09-23T12:14:43;13.95;;;4.93;;
50241;SDS011;36126;43.222;27.874;2022-09-23T12:20:03;18.45;;;7.82;;
50241;SDS011;36126;43.222;27.874;2022-09-23T12:27:55;6.35;;;2.83;;
50241;SDS011;36126;43.222;27.874;2022-09-23T12:30:29;5.13;;;3.50;;
50241;SDS011;36126;43.222;27.874;2022-09-23T12:33:05;66.03;;;28.38;;
50241;SDS011;36126;43.222;27.874;2022-09-23T12:35:46;6.22;;;3.30;;
50241;SDS011;36126;43.222;27.874;2022-09-23T12:38:13;5.80;;;2.80;;
50241;SDS011;36126;43.222;27.874;2022-09-23T12:40:45;6.25;;;3.35;;
50241;SDS011;36126;43.222;27.874;2022-09-23T12:43:18;11.32;;;6.50;;
50241;SDS011;36126;43.222;27.874;2022-09-23T12:51:23;7.80;;;2.88;;
50241;SDS011;36126;43.222;27.874;2022-09-23T12:53:51;9.70;;;3.08;;
50241;SDS011;36126;43.222;27.874;2022-09-23T12:56:20;5.25;;;2.42;;
50241;SDS011;36126;43.222;27.874;2022-09-23T13:03:52;7.25;;;3.00;;
50241;SDS011;36126;43.222;27.874;2022-09-23T13:07:26;5.82;;;2.75;;
50241;SDS011;36126;43.222;27.874;2022-09-23T13:09:31;4.68;;;2.50;;
50241;SDS011;36126;43.222;27.874;2022-09-23T13:12:06;5.05;;;2.42;;
50241;SDS011;36126;43.222;27.874;2022-09-23T13:14:41;9.65;;;3.70;;
50241;SDS011;36126;43.222;27.874;2022-09-23T13:17:28;4.28;;;2.63;;
50241;SDS011;36126;43.222;27.874;2022-09-23T13:19:57;2.40;;;1.92;;
50241;SDS011;36126;43.222;27.874;2022-09-23T13:22:57;4.25;;;2.35;;
50241;SDS011;36126;43.222;27.874;2022-09-23T13:25:28;5.95;;;2.58;;
50241;SDS011;36126;43.222;27.874;2022-09-23T13:27:59;5.55;;;3.40;;
50241;SDS011;36126;43.222;27.874;2022-09-23T13:30:26;18.27;;;9.32;;
50241;SDS011;36126;43.222;27.874;2022-09-23T13:33:05;11.60;;;5.38;;
50241;SDS011;36126;43.222;27.874;2022-09-23T13:35:36;5.72;;;2.90;;
50241;SDS011;36126;43.222;27.874;2022-09-23T13:38:09;3.80;;;2.55;;
50241;SDS011;36126;43.222;27.874;2022-09-23T13:40:36;6.72;;;2.75;;
50241;SDS011;36126;43.222;27.874;2022-09-23T13:43:08;5.20;;;2.80;;
50241;SDS011;36126;43.222;27.874;2022-09-23T13:45:46;5.53;;;3.20;;
50241;SDS011;36126;43.222;27.874;2022-09-23T13:48:12;6.57;;;3.50;;
50241;SDS011;36126;43.222;27.874;2022-09-23T13:50:42;4.93;;;2.65;;
50241;SDS011;36126;43.222;27.874;2022-09-23T13:53:30;6.97;;;3.95;;
50241;SDS011;36126;43.222;27.874;2022-09-23T13:58:29;5.40;;;4.03;;
50241;SDS011;36126;43.222;27.874;2022-09-23T14:00:56;7.35;;;3.92;;
50241;SDS011;36126;43.222;27.874;2022-09-23T14:03:29;6.03;;;3.00;;
50241;SDS011;36126;43.222;27.874;2022-09-23T14:05:59;68.25;;;30.65;;
50241;SDS011;36126;43.222;27.874;2022-09-23T14:08:28;5.28;;;3.10;;
50241;SDS011;36126;43.222;27.874;2022-09-23T14:10:55;15.32;;;8.60;;
50241;SDS011;36126;43.222;27.874;2022-09-23T14:13:26;5.90;;;2.17;;
50241;SDS011;36126;43.222;27.874;2022-09-23T14:15:56;3.72;;;2.33;;
50241;SDS011;36126;43.222;27.874;2022-09-23T14:18:45;5.10;;;2.00;;
50241;SDS011;36126;43.222;27.874;2022-09-23T14:23:58;6.13;;;2.53;;
50241;SDS011;36126;43.222;27.874;2022-09-23T14:27:00;2.92;;;1.90;;
50241;SDS011;36126;43.222;27.874;2022-09-23T14:29:27;15.38;;;3.05;;
50241;SDS011;36126;43.222;27.874;2022-09-23T14:31:56;9.63;;;3.10;;
50241;SDS011;36126;43.222;27.874;2022-09-23T14:34:43;8.35;;;2.15;;
50241;SDS011;36126;43.222;27.874;2022-09-23T14:40:12;14.13;;;2.72;;
50241;SDS011;36126;43.222;27.874;2022-09-23T14:42:50;5.93;;;2.70;;
50241;SDS011;36126;43.222;27.874;2022-09-23T14:45:22;4.50;;;1.73;;
50241;SDS011;36126;43.222;27.874;2022-09-23T14:47:50;3.83;;;1.70;;
50241;SDS011;36126;43.222;27.874;2022-09-23T14:50:37;4.15;;;1.55;;
50241;SDS011;36126;43.222;27.874;2022-09-23T14:55:45;4.03;;;1.92;;
50241;SDS011;36126;43.222;27.874;2022-09-23T14:58:14;4.72;;;1.80;;
50241;SDS011;36126;43.222;27.874;2022-09-23T15:03:51;26.90;;;5.07;;
50241;SDS011;36126;43.222;27.874;2022-09-23T15:06:18;16.85;;;7.55;;
50241;SDS011;36126;43.222;27.874;2022-09-23T15:08:47;7.30;;;2.63;;
50241;SDS011;36126;43.222;27.874;2022-09-23T15:11:13;3.42;;;2.28;;
50241;SDS011;36126;43.222;27.874;2022-09-23T15:13:42;9.30;;;2.85;;
50241;SDS011;36126;43.222;27.874;2022-09-23T15:16:12;12.60;;;2.85;;
50241;SDS011;36126;43.222;27.874;2022-09-23T15:18:40;15.52;;;3.22;;
50241;SDS011;36126;43.222;27.874;2022-09-23T15:21:16;19.98;;;3.17;;
50241;SDS011;36126;43.222;27.874;2022-09-23T15:23:46;31.27;;;4.40;;
50241;SDS011;36126;43.222;27.874;2022-09-23T15:26:15;24.77;;;3.53;;
50241;SDS011;36126;43.222;27.874;2022-09-23T15:28:48;14.05;;;3.30;;
50241;SDS011;36126;43.222;27.874;2022-09-23T15:31:21;17.57;;;4.50;;
50241;SDS011;36126;43.222;27.874;2022-09-23T15:33:50;19.35;;;3.13;;
50241;SDS011;36126;43.222;27.874;2022-09-23T15:36:17;7.70;;;3.17;;
50241;SDS011;36126;43.222;27.874;2022-09-23T15:38:44;24.67;;;4.38;;
50241;SDS011;36126;43.222;27.874;2022-09-23T15:41:11;19.90;;;4.20;;
50241;SDS011;36126;43.222;27.874;2022-09-23T15:43:41;85.80;;;11.25;;
50241;SDS011;36126;43.222;27.874;2022-09-23T15:46:11;71.90;;;11.13;;
50241;SDS011;36126;43.222;27.874;2022-09-23T15:48:41;75.88;;;10.15;;
50241;SDS011;36126;43.222;27.874;2022-09-23T15:51:11;46.58;;;7.07;;
50241;SDS011;36126;43.222;27.874;2022-09-23T15:53:39;31.52;;;6.40;;
50241;SDS011;36126;43.222;27.874;2022-09-23T15:56:04;30.35;;;6.95;;
50241;SDS011;36126;43.222;27.874;2022-09-23T15:58:30;39.40;;;6.88;;
50241;SDS011;36126;43.222;27.874;2022-09-23T16:00:56;26.98;;;5.25;;
50241;SDS011;36126;43.222;27.874;2022-09-23T16:03:22;30.48;;;6.20;;
50241;SDS011;36126;43.222;27.874;2022-09-23T16:05:54;43.88;;;10.05;;
50241;SDS011;36126;43.222;27.874;2022-09-23T16:10:53;37.22;;;8.38;;
50241;SDS011;36126;43.222;27.874;2022-09-23T16:13:19;39.78;;;10.50;;
50241;SDS011;36126;43.222;27.874;2022-09-23T16:15:45;40.20;;;10.80;;
50241;SDS011;36126;43.222;27.874;2022-09-23T16:18:11;44.38;;;12.13;;
50241;SDS011;36126;43.222;27.874;2022-09-23T16:20:38;39.97;;;9.20;;
50241;SDS011;36126;43.222;27.874;2022-09-23T16:23:09;28.30;;;6.70;;
50241;SDS011;36126;43.222;27.874;2022-09-23T16:25:59;37.20;;;9.80;;
50241;SDS011;36126;43.222;27.874;2022-09-23T16:28:45;41.97;;;10.63;;
50241;SDS011;36126;43.222;27.874;2022-09-23T16:31:12;40.33;;;8.13;;
50241;SDS011;36126;43.222;27.874;2022-09-23T16:33:41;34.78;;;9.20;;
50241;SDS011;36126;43.222;27.874;2022-09-23T16:36:08;26.70;;;7.30;;
50241;SDS011;36126;43.222;27.874;2022-09-23T16:38:40;51.35;;;9.38;;
50241;SDS011;36126;43.222;27.874;2022-09-23T16:41:06;43.03;;;8.57;;
50241;SDS011;36126;43.222;27.874;2022-09-23T16:43:33;45.25;;;10.45;;
50241;SDS011;36126;43.222;27.874;2022-09-23T16:46:12;30.85;;;9.93;;
50241;SDS011;36126;43.222;27.874;2022-09-23T16:48:42;38.42;;;14.55;;
50241;SDS011;36126;43.222;27.874;2022-09-23T16:51:18;43.35;;;14.07;;
50241;SDS011;36126;43.222;27.874;2022-09-23T16:53:45;38.70;;;15.57;;
50241;SDS011;36126;43.222;27.874;2022-09-23T16:56:15;31.92;;;10.40;;
50241;SDS011;36126;43.222;27.874;2022-09-23T16:58:42;38.05;;;9.75;;
50241;SDS011;36126;43.222;27.874;2022-09-23T17:01:10;33.25;;;8.15;;
50241;SDS011;36126;43.222;27.874;2022-09-23T17:03:57;44.65;;;8.13;;
50241;SDS011;36126;43.222;27.874;2022-09-23T17:06:23;26.95;;;9.18;;
50241;SDS011;36126;43.222;27.874;2022-09-23T17:08:51;39.38;;;10.02;;
50241;SDS011;36126;43.222;27.874;2022-09-23T17:11:17;48.67;;;12.77;;
50241;SDS011;36126;43.222;27.874;2022-09-23T17:13:43;35.42;;;10.65;;
50241;SDS011;36126;43.222;27.874;2022-09-23T17:16:10;34.97;;;11.10;;
50241;SDS011;36126;43.222;27.874;2022-09-23T17:18:46;31.45;;;9.45;;
50241;SDS011;36126;43.222;27.874;2022-09-23T17:21:11;35.35;;;10.38;;
50241;SDS011;36126;43.222;27.874;2022-09-23T17:23:37;40.20;;;10.07;;